sensor_id;sensor_type;location;lat;lon;timestamp;temperature;humidity
939;DHT22;456;53.584;9.968;2023-03-01T00:01:22;16.80;11.10
939;DHT22;456;53.584;9.968;2023-03-01T00:03:48;16.80;11.20
939;DHT22;456;53.584;9.968;2023-03-01T00:06:14;16.80;11.20
939;DHT22;456;53.584;9.968;2023-03-01T00:08:40;16.80;11.30
939;DHT22;456;53.584;9.968;2023-03-01T00:11:16;16.80;11.80
939;DHT22;456;53.584;9.968;2023-03-01T00:13:43;16.80;11.30
939;DHT22;456;53.584;9.968;2023-03-01T00:16:30;16.80;11.30
939;DHT22;456;53.584;9.968;2023-03-01T00:18:57;16.80;11.20
939;DHT22;456;53.584;9.968;2023-03-01T00:21:23;16.80;11.20
939;DHT22;456;53.584;9.968;2023-03-01T00:23:49;16.80;11.20
939;DHT22;456;53.584;9.968;2023-03-01T00:26:15;16.80;11.10
939;DHT22;456;53.584;9.968;2023-03-01T00:28:42;16.80;11.00
939;DHT22;456;53.584;9.968;2023-03-01T00:31:13;16.80;11.10
939;DHT22;456;53.584;9.968;2023-03-01T00:33:39;16.80;11.00
939;DHT22;456;53.584;9.968;2023-03-01T00:36:05;16.80;11.00
939;DHT22;456;53.584;9.968;2023-03-01T00:38:35;16.80;11.00
939;DHT22;456;53.584;9.968;2023-03-01T00:41:10;16.70;10.90
939;DHT22;456;53.584;9.968;2023-03-01T00:43:36;16.80;11.00
939;DHT22;456;53.584;9.968;2023-03-01T00:46:03;16.80;10.90
939;DHT22;456;53.584;9.968;2023-03-01T00:48:29;16.70;10.80
939;DHT22;456;53.584;9.968;2023-03-01T00:50:55;16.80;10.80
939;DHT22;456;53.584;9.968;2023-03-01T00:53:21;16.80;10.80
939;DHT22;456;53.584;9.968;2023-03-01T00:55:46;16.80;10.90
939;DHT22;456;53.584;9.968;2023-03-01T00:58:12;16.80;10.80
939;DHT22;456;53.584;9.968;2023-03-01T01:00:37;16.80;10.70
939;DHT22;456;53.584;9.968;2023-03-01T01:03:03;16.80;10.90
939;DHT22;456;53.584;9.968;2023-03-01T01:05:28;16.70;10.70
939;DHT22;456;53.584;9.968;2023-03-01T01:07:54;16.70;10.60
939;DHT22;456;53.584;9.968;2023-03-01T01:10:20;16.70;10.70
939;DHT22;456;53.584;9.968;2023-03-01T01:12:45;16.80;10.80
939;DHT22;456;53.584;9.968;2023-03-01T01:15:11;16.70;10.60
939;DHT22;456;53.584;9.968;2023-03-01T01:17:39;16.70;10.70
939;DHT22;456;53.584;9.968;2023-03-01T01:20:05;16.80;10.70
939;DHT22;456;53.584;9.968;2023-03-01T01:22:31;16.80;10.70
939;DHT22;456;53.584;9.968;2023-03-01T01:24:57;16.80;10.70
939;DHT22;456;53.584;9.968;2023-03-01T01:27:22;16.80;10.80
939;DHT22;456;53.584;9.968;2023-03-01T01:29:48;16.80;10.80
939;DHT22;456;53.584;9.968;2023-03-01T01:32:13;16.80;10.90
939;DHT22;456;53.584;9.968;2023-03-01T01:34:39;16.80;10.60
939;DHT22;456;53.584;9.968;2023-03-01T01:37:05;16.70;10.50
939;DHT22;456;53.584;9.968;2023-03-01T01:39:34;16.80;10.60
939;DHT22;456;53.584;9.968;2023-03-01T01:42:00;16.70;10.50
939;DHT22;456;53.584;9.968;2023-03-01T01:44:28;16.70;10.40
939;DHT22;456;53.584;9.968;2023-03-01T01:47:32;16.80;10.50
939;DHT22;456;53.584;9.968;2023-03-01T01:49:54;16.70;10.40
939;DHT22;456;53.584;9.968;2023-03-01T01:52:24;16.70;10.30
939;DHT22;456;53.584;9.968;2023-03-01T01:54:57;16.70;10.30
939;DHT22;456;53.584;9.968;2023-03-01T01:57:33;16.70;10.30
939;DHT22;456;53.584;9.968;2023-03-01T02:00:04;16.70;10.40
939;DHT22;456;53.584;9.968;2023-03-01T02:02:30;16.70;10.30
939;DHT22;456;53.584;9.968;2023-03-01T02:05:09;16.70;10.40
939;DHT22;456;53.584;9.968;2023-03-01T02:07:38;16.70;10.30
939;DHT22;456;53.584;9.968;2023-03-01T02:10:05;16.70;10.30
939;DHT22;456;53.584;9.968;2023-03-01T02:12:32;16.70;10.30
939;DHT22;456;53.584;9.968;2023-03-01T02:14:57;16.70;10.30
939;DHT22;456;53.584;9.968;2023-03-01T02:17:23;16.70;10.20
939;DHT22;456;53.584;9.968;2023-03-01T02:22:22;16.70;10.20
939;DHT22;456;53.584;9.968;2023-03-01T02:30:21;16.70;10.20
939;DHT22;456;53.584;9.968;2023-03-01T02:32:47;16.70;10.20
939;DHT22;456;53.584;9.968;2023-03-01T02:35:16;16.70;10.10
939;DHT22;456;53.584;9.968;2023-03-01T02:37:43;16.70;10.30
939;DHT22;456;53.584;9.968;2023-03-01T02:40:12;16.70;10.30
939;DHT22;456;53.584;9.968;2023-03-01T02:42:48;16.70;10.20
939;DHT22;456;53.584;9.968;2023-03-01T02:45:15;16.70;10.30
939;DHT22;456;53.584;9.968;2023-03-01T02:47:41;16.70;10.30
939;DHT22;456;53.584;9.968;2023-03-01T02:55:31;16.70;10.20
939;DHT22;456;53.584;9.968;2023-03-01T02:57:57;16.70;10.20
939;DHT22;456;53.584;9.968;2023-03-01T03:00:33;16.70;10.10
939;DHT22;456;53.584;9.968;2023-03-01T03:03:00;16.70;10.20
939;DHT22;456;53.584;9.968;2023-03-01T03:05:29;16.70;10.00
939;DHT22;456;53.584;9.968;2023-03-01T03:07:55;16.70;10.10
939;DHT22;456;53.584;9.968;2023-03-01T03:10:29;16.70;10.10
939;DHT22;456;53.584;9.968;2023-03-01T03:15:22;16.70;10.00
939;DHT22;456;53.584;9.968;2023-03-01T03:17:49;16.70;10.00
939;DHT22;456;53.584;9.968;2023-03-01T03:20:17;16.70;10.00
939;DHT22;456;53.584;9.968;2023-03-01T03:22:45;16.70;10.00
939;DHT22;456;53.584;9.968;2023-03-01T03:25:11;16.70;10.00
939;DHT22;456;53.584;9.968;2023-03-01T03:27:41;16.70;9.90
939;DHT22;456;53.584;9.968;2023-03-01T03:30:09;16.70;9.80
939;DHT22;456;53.584;9.968;2023-03-01T03:32:39;16.70;9.90
939;DHT22;456;53.584;9.968;2023-03-01T03:35:06;16.70;9.90
939;DHT22;456;53.584;9.968;2023-03-01T03:37:39;16.70;9.90
939;DHT22;456;53.584;9.968;2023-03-01T03:40:24;16.70;9.90
939;DHT22;456;53.584;9.968;2023-03-01T03:42:50;16.70;9.90
939;DHT22;456;53.584;9.968;2023-03-01T03:45:17;16.70;9.90
939;DHT22;456;53.584;9.968;2023-03-01T03:47:43;16.70;9.90
939;DHT22;456;53.584;9.968;2023-03-01T03:50:11;16.70;9.90
939;DHT22;456;53.584;9.968;2023-03-01T03:52:36;16.70;10.00
939;DHT22;456;53.584;9.968;2023-03-01T03:55:03;16.70;10.00
939;DHT22;456;53.584;9.968;2023-03-01T03:57:28;16.70;9.90
939;DHT22;456;53.584;9.968;2023-03-01T03:59:54;16.70;9.90
939;DHT22;456;53.584;9.968;2023-03-01T04:02:20;16.70;10.00
939;DHT22;456;53.584;9.968;2023-03-01T04:04:48;16.70;9.80
939;DHT22;456;53.584;9.968;2023-03-01T04:07:15;16.70;9.90
939;DHT22;456;53.584;9.968;2023-03-01T04:09:41;16.70;9.90
939;DHT22;456;53.584;9.968;2023-03-01T04:12:08;16.70;9.80
939;DHT22;456;53.584;9.968;2023-03-01T04:14:33;16.70;9.80
939;DHT22;456;53.584;9.968;2023-03-01T04:16:59;16.70;9.80
939;DHT22;456;53.584;9.968;2023-03-01T04:19:24;16.70;9.80
939;DHT22;456;53.584;9.968;2023-03-01T04:21:52;16.70;9.90
939;DHT22;456;53.584;9.968;2023-03-01T04:24:18;16.70;9.90
939;DHT22;456;53.584;9.968;2023-03-01T04:26:44;16.70;9.80
939;DHT22;456;53.584;9.968;2023-03-01T04:29:09;16.70;9.80
939;DHT22;456;53.584;9.968;2023-03-01T04:31:35;16.70;9.80
939;DHT22;456;53.584;9.968;2023-03-01T04:34:01;16.70;9.70
939;DHT22;456;53.584;9.968;2023-03-01T04:36:28;16.70;9.70
939;DHT22;456;53.584;9.968;2023-03-01T04:38:54;16.70;9.80
939;DHT22;456;53.584;9.968;2023-03-01T04:41:22;16.70;9.60
939;DHT22;456;53.584;9.968;2023-03-01T04:43:49;16.70;9.70
939;DHT22;456;53.584;9.968;2023-03-01T04:46:17;16.70;9.60
939;DHT22;456;53.584;9.968;2023-03-01T04:48:44;16.70;9.80
939;DHT22;456;53.584;9.968;2023-03-01T04:51:10;16.70;9.80
939;DHT22;456;53.584;9.968;2023-03-01T04:53:39;16.70;9.70
939;DHT22;456;53.584;9.968;2023-03-01T04:56:05;16.70;9.70
939;DHT22;456;53.584;9.968;2023-03-01T04:58:31;16.70;10.20
939;DHT22;456;53.584;9.968;2023-03-01T05:00:57;16.80;10.60
939;DHT22;456;53.584;9.968;2023-03-01T05:03:23;16.80;10.50
939;DHT22;456;53.584;9.968;2023-03-01T05:05:51;16.80;10.40
939;DHT22;456;53.584;9.968;2023-03-01T05:08:17;16.90;10.90
939;DHT22;456;53.584;9.968;2023-03-01T05:10:51;16.90;10.20
939;DHT22;456;53.584;9.968;2023-03-01T05:13:18;16.90;10.10
939;DHT22;456;53.584;9.968;2023-03-01T05:15:57;16.90;10.00
939;DHT22;456;53.584;9.968;2023-03-01T05:18:24;16.90;10.10
939;DHT22;456;53.584;9.968;2023-03-01T05:20:52;16.90;10.10
939;DHT22;456;53.584;9.968;2023-03-01T05:23:18;16.90;10.00
939;DHT22;456;53.584;9.968;2023-03-01T05:25:44;16.90;10.00
939;DHT22;456;53.584;9.968;2023-03-01T05:28:13;16.90;10.00
939;DHT22;456;53.584;9.968;2023-03-01T05:30:39;16.90;9.90
939;DHT22;456;53.584;9.968;2023-03-01T05:33:05;16.90;10.00
939;DHT22;456;53.584;9.968;2023-03-01T05:35:35;16.90;9.90
939;DHT22;456;53.584;9.968;2023-03-01T05:38:01;16.90;10.00
939;DHT22;456;53.584;9.968;2023-03-01T05:40:27;16.90;10.00
939;DHT22;456;53.584;9.968;2023-03-01T05:42:55;16.90;9.90
939;DHT22;456;53.584;9.968;2023-03-01T05:45:23;16.90;10.00
939;DHT22;456;53.584;9.968;2023-03-01T05:47:49;16.90;10.00
939;DHT22;456;53.584;9.968;2023-03-01T05:50:22;16.90;10.00
939;DHT22;456;53.584;9.968;2023-03-01T05:52:50;16.90;10.10
939;DHT22;456;53.584;9.968;2023-03-01T05:55:20;16.90;10.20
939;DHT22;456;53.584;9.968;2023-03-01T05:57:46;16.90;10.30
939;DHT22;456;53.584;9.968;2023-03-01T06:00:13;16.90;10.30
939;DHT22;456;53.584;9.968;2023-03-01T06:02:39;16.90;10.30
939;DHT22;456;53.584;9.968;2023-03-01T06:05:06;16.90;10.20
939;DHT22;456;53.584;9.968;2023-03-01T06:07:32;16.90;10.20
939;DHT22;456;53.584;9.968;2023-03-01T06:09:58;16.90;10.20
939;DHT22;456;53.584;9.968;2023-03-01T06:12:23;16.90;10.20
939;DHT22;456;53.584;9.968;2023-03-01T06:14:49;16.90;10.20
939;DHT22;456;53.584;9.968;2023-03-01T06:17:15;16.90;10.30
939;DHT22;456;53.584;9.968;2023-03-01T06:19:40;16.90;10.40
939;DHT22;456;53.584;9.968;2023-03-01T06:22:06;16.90;10.40
939;DHT22;456;53.584;9.968;2023-03-01T06:24:32;16.90;10.30
939;DHT22;456;53.584;9.968;2023-03-01T06:26:58;17.00;10.60
939;DHT22;456;53.584;9.968;2023-03-01T06:29:24;17.00;10.70
939;DHT22;456;53.584;9.968;2023-03-01T06:31:49;17.00;10.80
939;DHT22;456;53.584;9.968;2023-03-01T06:34:15;17.00;10.70
939;DHT22;456;53.584;9.968;2023-03-01T06:36:40;17.00;10.70
939;DHT22;456;53.584;9.968;2023-03-01T06:39:06;17.00;10.60
939;DHT22;456;53.584;9.968;2023-03-01T06:41:32;17.00;10.60
939;DHT22;456;53.584;9.968;2023-03-01T06:44:00;17.00;10.60
939;DHT22;456;53.584;9.968;2023-03-01T06:46:26;17.00;10.80
939;DHT22;456;53.584;9.968;2023-03-01T06:48:51;17.00;10.70
939;DHT22;456;53.584;9.968;2023-03-01T06:51:17;17.00;10.60
939;DHT22;456;53.584;9.968;2023-03-01T06:53:42;17.00;10.50
939;DHT22;456;53.584;9.968;2023-03-01T06:56:08;17.00;10.60
939;DHT22;456;53.584;9.968;2023-03-01T06:58:33;17.00;10.60
939;DHT22;456;53.584;9.968;2023-03-01T07:00:59;17.00;10.60
939;DHT22;456;53.584;9.968;2023-03-01T07:03:25;17.00;10.60
939;DHT22;456;53.584;9.968;2023-03-01T07:05:50;17.00;10.60
939;DHT22;456;53.584;9.968;2023-03-01T07:08:19;16.90;10.60
939;DHT22;456;53.584;9.968;2023-03-01T07:10:45;16.90;10.90
939;DHT22;456;53.584;9.968;2023-03-01T07:13:10;16.80;10.50
939;DHT22;456;53.584;9.968;2023-03-01T07:15:36;16.80;10.30
939;DHT22;456;53.584;9.968;2023-03-01T07:18:01;16.90;9.90
939;DHT22;456;53.584;9.968;2023-03-01T07:20:27;16.80;10.00
939;DHT22;456;53.584;9.968;2023-03-01T07:22:54;16.80;10.20
939;DHT22;456;53.584;9.968;2023-03-01T07:25:20;16.80;10.10
939;DHT22;456;53.584;9.968;2023-03-01T07:27:52;16.80;10.30
939;DHT22;456;53.584;9.968;2023-03-01T07:30:20;16.80;10.30
939;DHT22;456;53.584;9.968;2023-03-01T07:32:45;16.80;10.30
939;DHT22;456;53.584;9.968;2023-03-01T07:35:11;16.90;10.30
939;DHT22;456;53.584;9.968;2023-03-01T07:37:37;16.90;10.40
939;DHT22;456;53.584;9.968;2023-03-01T07:40:03;16.80;10.30
939;DHT22;456;53.584;9.968;2023-03-01T07:42:28;16.90;10.50
939;DHT22;456;53.584;9.968;2023-03-01T07:44:54;16.90;10.40
939;DHT22;456;53.584;9.968;2023-03-01T07:47:19;16.90;10.40
939;DHT22;456;53.584;9.968;2023-03-01T07:49:45;16.90;10.50
939;DHT22;456;53.584;9.968;2023-03-01T07:52:11;16.90;10.50
939;DHT22;456;53.584;9.968;2023-03-01T07:54:37;16.90;10.60
939;DHT22;456;53.584;9.968;2023-03-01T07:57:03;16.90;10.50
939;DHT22;456;53.584;9.968;2023-03-01T07:59:28;16.90;10.50
939;DHT22;456;53.584;9.968;2023-03-01T08:01:57;16.90;10.50
939;DHT22;456;53.584;9.968;2023-03-01T08:04:23;16.90;10.50
939;DHT22;456;53.584;9.968;2023-03-01T08:06:50;16.90;10.50
939;DHT22;456;53.584;9.968;2023-03-01T08:09:16;16.90;10.50
939;DHT22;456;53.584;9.968;2023-03-01T08:11:42;16.90;10.50
939;DHT22;456;53.584;9.968;2023-03-01T08:14:08;16.90;10.60
939;DHT22;456;53.584;9.968;2023-03-01T08:16:34;16.90;10.60
939;DHT22;456;53.584;9.968;2023-03-01T08:19:18;16.90;10.60
939;DHT22;456;53.584;9.968;2023-03-01T08:21:44;16.90;10.60
939;DHT22;456;53.584;9.968;2023-03-01T08:24:09;16.90;10.50
939;DHT22;456;53.584;9.968;2023-03-01T08:26:36;16.90;10.40
939;DHT22;456;53.584;9.968;2023-03-01T08:29:02;16.90;10.50
939;DHT22;456;53.584;9.968;2023-03-01T08:31:34;16.90;10.50
939;DHT22;456;53.584;9.968;2023-03-01T08:34:06;16.90;10.40
939;DHT22;456;53.584;9.968;2023-03-01T08:36:37;16.90;10.40
939;DHT22;456;53.584;9.968;2023-03-01T08:39:04;16.90;10.40
939;DHT22;456;53.584;9.968;2023-03-01T08:41:30;16.90;10.50
939;DHT22;456;53.584;9.968;2023-03-01T08:43:56;16.90;10.50
939;DHT22;456;53.584;9.968;2023-03-01T08:46:29;16.90;10.50
939;DHT22;456;53.584;9.968;2023-03-01T08:48:56;16.90;10.60
939;DHT22;456;53.584;9.968;2023-03-01T08:51:22;16.90;10.60
939;DHT22;456;53.584;9.968;2023-03-01T08:53:48;16.90;10.50
939;DHT22;456;53.584;9.968;2023-03-01T08:56:15;16.90;10.60
939;DHT22;456;53.584;9.968;2023-03-01T08:58:44;16.90;10.60
939;DHT22;456;53.584;9.968;2023-03-01T09:01:11;16.90;10.50
939;DHT22;456;53.584;9.968;2023-03-01T09:03:38;16.90;10.60
939;DHT22;456;53.584;9.968;2023-03-01T09:06:05;16.90;10.60
939;DHT22;456;53.584;9.968;2023-03-01T09:08:35;16.90;10.60
939;DHT22;456;53.584;9.968;2023-03-01T09:11:02;16.90;10.80
939;DHT22;456;53.584;9.968;2023-03-01T09:13:28;16.90;10.70
939;DHT22;456;53.584;9.968;2023-03-01T09:16:00;16.90;10.70
939;DHT22;456;53.584;9.968;2023-03-01T09:18:26;16.90;10.70
939;DHT22;456;53.584;9.968;2023-03-01T09:20:52;16.90;10.60
939;DHT22;456;53.584;9.968;2023-03-01T09:23:20;16.90;10.60
939;DHT22;456;53.584;9.968;2023-03-01T09:25:46;16.90;10.60
939;DHT22;456;53.584;9.968;2023-03-01T09:28:12;16.90;10.60
939;DHT22;456;53.584;9.968;2023-03-01T09:30:37;16.90;10.60
939;DHT22;456;53.584;9.968;2023-03-01T09:33:03;16.90;10.60
939;DHT22;456;53.584;9.968;2023-03-01T09:35:28;16.90;10.70
939;DHT22;456;53.584;9.968;2023-03-01T09:37:54;16.90;10.70
939;DHT22;456;53.584;9.968;2023-03-01T09:40:22;16.90;10.70
939;DHT22;456;53.584;9.968;2023-03-01T09:47:52;16.90;10.70
939;DHT22;456;53.584;9.968;2023-03-01T09:50:21;16.90;10.60
939;DHT22;456;53.584;9.968;2023-03-01T09:52:54;16.90;10.60
939;DHT22;456;53.584;9.968;2023-03-01T09:55:44;16.90;10.60
939;DHT22;456;53.584;9.968;2023-03-01T10:01:38;16.80;10.60
939;DHT22;456;53.584;9.968;2023-03-01T10:04:38;16.80;10.60
939;DHT22;456;53.584;9.968;2023-03-01T10:09:40;16.90;10.60
939;DHT22;456;53.584;9.968;2023-03-01T10:12:12;16.80;10.60
939;DHT22;456;53.584;9.968;2023-03-01T10:15:03;16.80;10.50
939;DHT22;456;53.584;9.968;2023-03-01T10:17:46;16.80;10.60
939;DHT22;456;53.584;9.968;2023-03-01T10:20:23;16.80;10.50
939;DHT22;456;53.584;9.968;2023-03-01T10:22:49;16.80;10.50
939;DHT22;456;53.584;9.968;2023-03-01T10:28:29;16.80;10.50
939;DHT22;456;53.584;9.968;2023-03-01T10:30:57;16.80;10.60
939;DHT22;456;53.584;9.968;2023-03-01T10:33:27;16.80;10.70
939;DHT22;456;53.584;9.968;2023-03-01T10:35:54;16.80;10.60
939;DHT22;456;53.584;9.968;2023-03-01T10:38:20;16.80;10.60
939;DHT22;456;53.584;9.968;2023-03-01T10:40:54;16.70;10.50
939;DHT22;456;53.584;9.968;2023-03-01T10:43:25;16.70;10.40
939;DHT22;456;53.584;9.968;2023-03-01T10:45:52;16.70;10.50
939;DHT22;456;53.584;9.968;2023-03-01T10:48:20;16.70;10.50
939;DHT22;456;53.584;9.968;2023-03-01T10:50:51;16.70;10.50
939;DHT22;456;53.584;9.968;2023-03-01T10:53:40;16.70;10.50
939;DHT22;456;53.584;9.968;2023-03-01T10:56:11;16.70;10.50
939;DHT22;456;53.584;9.968;2023-03-01T10:58:40;16.70;10.50
939;DHT22;456;53.584;9.968;2023-03-01T11:01:25;16.70;10.50
939;DHT22;456;53.584;9.968;2023-03-01T11:06:33;16.70;10.60
939;DHT22;456;53.584;9.968;2023-03-01T11:09:23;16.70;10.70
939;DHT22;456;53.584;9.968;2023-03-01T11:11:54;16.70;10.70
939;DHT22;456;53.584;9.968;2023-03-01T11:14:25;16.70;10.60
939;DHT22;456;53.584;9.968;2023-03-01T11:17:21;16.70;10.70
939;DHT22;456;53.584;9.968;2023-03-01T11:20:24;16.70;10.70
939;DHT22;456;53.584;9.968;2023-03-01T11:23:05;16.70;10.70
939;DHT22;456;53.584;9.968;2023-03-01T11:25:41;16.70;10.60
939;DHT22;456;53.584;9.968;2023-03-01T11:28:12;16.70;10.70
939;DHT22;456;53.584;9.968;2023-03-01T11:31:03;16.70;10.70
939;DHT22;456;53.584;9.968;2023-03-01T11:36:13;16.70;10.70
939;DHT22;456;53.584;9.968;2023-03-01T11:38:41;16.70;10.70
939;DHT22;456;53.584;9.968;2023-03-01T11:41:14;16.70;10.80
939;DHT22;456;53.584;9.968;2023-03-01T11:43:59;16.70;10.70
939;DHT22;456;53.584;9.968;2023-03-01T11:52:05;16.60;10.80
939;DHT22;456;53.584;9.968;2023-03-01T11:54:45;16.60;10.70
939;DHT22;456;53.584;9.968;2023-03-01T11:57:36;16.60;10.70
939;DHT22;456;53.584;9.968;2023-03-01T12:09:25;16.60;10.90
939;DHT22;456;53.584;9.968;2023-03-01T12:11:52;16.70;11.00
939;DHT22;456;53.584;9.968;2023-03-01T12:14:36;16.60;10.90
939;DHT22;456;53.584;9.968;2023-03-01T12:26:32;16.60;10.90
939;DHT22;456;53.584;9.968;2023-03-01T12:29:12;16.60;11.00
